Time;durP1;ratioP1;P1;durP2;ratioP2;P2;SDS_P1;SDS_P2;PMS_P1;PMS_P2;Temp;Humidity;BMP_temperature;BMP_pressure;BME280_temperature;BME280_humidity;BME280_pressure;Samples;Min_cycle;Max_cycle;Signal;HPM_P1;HPM_P2
2023/07/02 00:01:09;;;;;;;5.43;4.30;;;;;;;;;;5033705;28;20218;-69
2023/07/02 00:03:37;;;;;;;8.43;4.70;;;;;;;;;;5033727;28;20179;-69
2023/07/02 00:06:03;;;;;;;6.30;4.13;;;;;;;;;;5033386;28;20175;-69
2023/07/02 00:08:29;;;;;;;8.37;4.70;;;;;;;;;;5015567;28;20213;-68
2023/07/02 00:10:55;;;;;;;9.80;4.93;;;;;;;;;;5033631;28;20184;-69
2023/07/02 00:13:21;;;;;;;9.40;4.97;;;;;;;;;;5033342;28;20183;-69
2023/07/02 00:15:47;;;;;;;10.00;4.70;;;;;;;;;;5033256;28;20183;-69
2023/07/02 00:18:16;;;;;;;10.77;5.03;;;;;;;;;;5033527;28;20199;-69
2023/07/02 00:20:42;;;;;;;7.70;4.87;;;;;;;;;;5034699;28;20218;-69
2023/07/02 00:23:09;;;;;;;9.40;4.57;;;;;;;;;;5033288;28;20175;-69
2023/07/02 00:25:35;;;;;;;11.00;5.23;;;;;;;;;;5033145;28;20194;-69
2023/07/02 00:28:01;;;;;;;11.83;5.27;;;;;;;;;;5032945;28;20259;-68
2023/07/02 00:30:27;;;;;;;6.30;5.30;;;;;;;;;;5033166;28;20589;-68
2023/07/02 00:32:53;;;;;;;7.90;5.10;;;;;;;;;;5033143;28;20201;-69
2023/07/02 00:35:19;;;;;;;12.40;5.53;;;;;;;;;;5032998;28;20183;-69
2023/07/02 00:37:45;;;;;;;9.80;4.93;;;;;;;;;;5032984;28;20221;-68
2023/07/02 00:40:11;;;;;;;7.80;4.73;;;;;;;;;;5015220;28;20685;-69
2023/07/02 00:42:37;;;;;;;10.33;5.23;;;;;;;;;;5032942;28;20179;-68
2023/07/02 00:45:04;;;;;;;9.10;4.83;;;;;;;;;;5033184;28;20171;-68
2023/07/02 00:47:34;;;;;;;10.20;4.90;;;;;;;;;;5033391;28;20202;-68
2023/07/02 00:50:01;;;;;;;8.50;5.43;;;;;;;;;;5032921;28;20183;-69
2023/07/02 00:52:27;;;;;;;9.27;5.20;;;;;;;;;;5033122;28;20193;-69
2023/07/02 00:54:53;;;;;;;8.67;5.27;;;;;;;;;;5033477;28;20179;-69
2023/07/02 00:57:19;;;;;;;9.83;5.20;;;;;;;;;;5035158;28;20638;-68
2023/07/02 00:59:45;;;;;;;6.80;4.63;;;;;;;;;;5036669;28;20298;-68
2023/07/02 01:02:12;;;;;;;14.17;5.83;;;;;;;;;;5019026;28;20357;-68
2023/07/02 01:04:38;;;;;;;11.25;6.03;;;;;;;;;;5035521;28;20390;-68
2023/07/02 01:07:09;;;;;;;9.13;5.60;;;;;;;;;;5035761;28;20390;-66
2023/07/02 01:09:35;;;;;;;10.77;6.15;;;;;;;;;;5017703;28;20394;-68
2023/07/02 01:12:03;;;;;;;12.90;6.37;;;;;;;;;;5035436;28;20391;-68
2023/07/02 01:14:34;;;;;;;11.20;5.90;;;;;;;;;;5018805;28;20548;-68
2023/07/02 01:17:00;;;;;;;13.13;5.77;;;;;;;;;;5018786;28;20676;-68
2023/07/02 01:19:34;;;;;;;10.83;5.97;;;;;;;;;;5036255;28;20268;-68
2023/07/02 01:22:00;;;;;;;12.20;5.50;;;;;;;;;;5036306;28;20213;-66
2023/07/02 01:24:27;;;;;;;14.60;6.63;;;;;;;;;;5036292;28;20270;-68
2023/07/02 01:26:53;;;;;;;10.53;5.87;;;;;;;;;;5036212;28;20186;-68
2023/07/02 01:29:20;;;;;;;11.03;6.47;;;;;;;;;;5035901;28;20238;-69
2023/07/02 01:31:46;;;;;;;9.87;6.50;;;;;;;;;;5035027;28;20425;-68
2023/07/02 01:34:12;;;;;;;11.07;6.68;;;;;;;;;;5034966;28;20387;-69
2023/07/02 01:36:38;;;;;;;12.63;6.43;;;;;;;;;;5034849;28;20398;-68
2023/07/02 01:39:05;;;;;;;14.00;6.53;;;;;;;;;;5034743;28;20478;-69
2023/07/02 01:41:32;;;;;;;10.95;6.85;;;;;;;;;;5017032;28;20437;-68
2023/07/02 01:43:58;;;;;;;12.30;7.10;;;;;;;;;;5035132;28;20922;-69
2023/07/02 01:46:24;;;;;;;12.07;7.03;;;;;;;;;;5034685;28;20393;-69
2023/07/02 01:48:50;;;;;;;13.10;7.78;;;;;;;;;;5034748;28;20383;-69
2023/07/02 01:51:16;;;;;;;13.82;7.88;;;;;;;;;;5034651;28;20383;-69
2023/07/02 01:53:42;;;;;;;15.13;7.80;;;;;;;;;;5034516;28;20387;-69
2023/07/02 01:56:08;;;;;;;13.60;8.02;;;;;;;;;;5034511;28;20419;-68
2023/07/02 01:58:34;;;;;;;15.57;8.50;;;;;;;;;;5034495;28;20461;-68
2023/07/02 02:01:00;;;;;;;14.27;7.83;;;;;;;;;;5034425;28;20861;-69
2023/07/02 02:03:26;;;;;;;16.27;8.35;;;;;;;;;;5034833;28;20861;-68
2023/07/02 02:05:52;;;;;;;15.40;8.65;;;;;;;;;;5016716;28;20376;-69
2023/07/02 02:08:18;;;;;;;14.93;8.95;;;;;;;;;;5016447;28;20896;-68
2023/07/02 02:10:43;;;;;;;15.43;8.70;;;;;;;;;;5016551;28;20905;-69
2023/07/02 02:13:09;;;;;;;14.40;8.93;;;;;;;;;;5034333;28;20387;-68
2023/07/02 02:15:36;;;;;;;15.82;9.32;;;;;;;;;;5034789;28;20388;-68
2023/07/02 02:18:02;;;;;;;20.50;9.52;;;;;;;;;;5034807;28;20909;-68
2023/07/02 02:20:28;;;;;;;15.57;9.30;;;;;;;;;;5034943;28;20501;-68
2023/07/02 02:22:54;;;;;;;19.17;10.05;;;;;;;;;;5035854;28;20407;-68
2023/07/02 02:25:20;;;;;;;17.97;9.83;;;;;;;;;;5035181;28;20458;-70
2023/07/02 02:27:46;;;;;;;16.90;9.95;;;;;;;;;;5034999;28;20947;-68
2023/07/02 02:30:12;;;;;;;17.00;9.88;;;;;;;;;;5034943;28;20422;-69
2023/07/02 02:32:38;;;;;;;17.03;10.50;;;;;;;;;;5034495;28;20390;-69
2023/07/02 02:35:04;;;;;;;21.83;11.35;;;;;;;;;;5035134;28;20383;-69
2023/07/02 02:37:31;;;;;;;19.13;10.90;;;;;;;;;;5035119;28;20429;-69
2023/07/02 02:39:57;;;;;;;20.08;11.00;;;;;;;;;;5034394;28;20410;-69
2023/07/02 02:42:25;;;;;;;21.52;11.57;;;;;;;;;;5035022;28;20782;-69
2023/07/02 02:44:51;;;;;;;19.65;12.20;;;;;;;;;;5034135;28;20517;-69
2023/07/02 02:47:17;;;;;;;20.15;11.90;;;;;;;;;;5034985;28;20434;-68
2023/07/02 02:49:43;;;;;;;20.53;12.43;;;;;;;;;;5034843;28;20829;-69
2023/07/02 02:52:09;;;;;;;21.42;12.40;;;;;;;;;;5016676;28;20387;-69
2023/07/02 02:54:35;;;;;;;19.13;12.68;;;;;;;;;;5034823;28;20886;-68
2023/07/02 02:57:01;;;;;;;22.23;13.15;;;;;;;;;;5033506;28;20395;-69
2023/07/02 02:59:28;;;;;;;22.02;12.55;;;;;;;;;;5033218;28;20477;-69
2023/07/02 03:01:54;;;;;;;24.08;13.23;;;;;;;;;;5015461;28;20391;-69
2023/07/02 03:04:23;;;;;;;25.30;13.67;;;;;;;;;;5033589;28;20383;-68
2023/07/02 03:06:49;;;;;;;24.35;13.50;;;;;;;;;;5015584;28;20387;-68
2023/07/02 03:09:15;;;;;;;26.15;13.27;;;;;;;;;;5015378;28;20544;-68
2023/07/02 03:11:41;;;;;;;23.73;13.93;;;;;;;;;;5033164;28;20584;-68
2023/07/02 03:14:07;;;;;;;24.10;14.20;;;;;;;;;;5015300;28;20383;-69
2023/07/02 03:16:33;;;;;;;23.35;14.95;;;;;;;;;;5015389;28;20746;-70
2023/07/02 03:18:59;;;;;;;29.98;14.68;;;;;;;;;;5014806;28;20432;-70
2023/07/02 03:21:25;;;;;;;26.70;14.27;;;;;;;;;;5033443;28;20517;-69
2023/07/02 03:23:51;;;;;;;23.10;12.50;;;;;;;;;;5034155;28;20178;-69
2023/07/02 03:26:18;;;;;;;27.33;13.40;;;;;;;;;;5034414;28;20551;-69
2023/07/02 03:28:44;;;;;;;24.20;13.80;;;;;;;;;;5016213;28;20734;-69
2023/07/02 03:31:10;;;;;;;24.20;13.87;;;;;;;;;;5034163;28;20179;-69
2023/07/02 03:33:36;;;;;;;25.83;14.40;;;;;;;;;;5033889;28;20207;-69
2023/07/02 03:36:02;;;;;;;25.13;14.13;;;;;;;;;;5016145;28;20645;-69
2023/07/02 03:38:28;;;;;;;22.77;13.60;;;;;;;;;;5016068;28;20203;-69
2023/07/02 03:40:53;;;;;;;25.57;13.80;;;;;;;;;;5033677;28;20203;-68
2023/07/02 03:43:19;;;;;;;22.90;13.70;;;;;;;;;;5034297;28;20598;-70
2023/07/02 03:45:45;;;;;;;25.07;14.57;;;;;;;;;;5034231;28;20583;-70
2023/07/02 03:48:11;;;;;;;27.83;14.23;;;;;;;;;;5015905;28;20249;-70
2023/07/02 03:50:37;;;;;;;25.03;13.23;;;;;;;;;;5016063;28;20206;-70
2023/07/02 03:53:03;;;;;;;20.63;13.30;;;;;;;;;;5015954;28;20279;-70
2023/07/02 03:55:29;;;;;;;22.73;14.13;;;;;;;;;;5015809;28;20254;-70
2023/07/02 03:57:55;;;;;;;24.03;14.80;;;;;;;;;;5015666;28;20198;-70
2023/07/02 04:00:21;;;;;;;31.63;14.93;;;;;;;;;;5015682;28;20260;-70
2023/07/02 04:02:47;;;;;;;24.40;14.93;;;;;;;;;;5015790;28;20179;-70
2023/07/02 04:05:13;;;;;;;27.07;14.60;;;;;;;;;;5033351;28;20174;-70
2023/07/02 04:07:39;;;;;;;25.23;15.67;;;;;;;;;;5015639;28;20290;-70
2023/07/02 04:10:05;;;;;;;27.40;15.47;;;;;;;;;;5033287;28;20183;-70
2023/07/02 04:12:31;;;;;;;28.40;15.87;;;;;;;;;;5033316;28;20186;-70
2023/07/02 04:14:57;;;;;;;30.60;15.80;;;;;;;;;;5033230;28;20175;-70
2023/07/02 04:17:23;;;;;;;26.17;14.93;;;;;;;;;;5033126;28;20241;-70
2023/07/02 04:19:49;;;;;;;28.43;14.47;;;;;;;;;;5033041;28;20206;-70
2023/07/02 04:22:15;;;;;;;31.47;15.63;;;;;;;;;;5033360;28;20175;-70
2023/07/02 04:24:41;;;;;;;25.47;15.97;;;;;;;;;;5033156;28;20187;-70
2023/07/02 04:27:07;;;;;;;30.53;16.10;;;;;;;;;;5033132;28;20185;-70
2023/07/02 04:29:33;;;;;;;32.10;16.17;;;;;;;;;;5032837;28;20298;-70
2023/07/02 04:31:59;;;;;;;31.10;16.13;;;;;;;;;;5035223;28;20179;-70
2023/07/02 04:34:25;;;;;;;34.10;16.77;;;;;;;;;;5037398;28;20190;-70
2023/07/02 04:36:51;;;;;;;30.60;16.23;;;;;;;;;;5037112;28;20189;-70
2023/07/02 04:39:17;;;;;;;26.43;16.37;;;;;;;;;;5036985;28;20248;-70
2023/07/02 04:41:43;;;;;;;33.37;15.80;;;;;;;;;;5019250;28;20576;-70
2023/07/02 04:44:09;;;;;;;30.33;17.20;;;;;;;;;;5019176;28;20189;-70
2023/07/02 04:46:35;;;;;;;29.03;16.60;;;;;;;;;;5037511;28;20629;-70
2023/07/02 04:49:01;;;;;;;29.50;17.37;;;;;;;;;;5019120;28;20205;-70
2023/07/02 04:51:27;;;;;;;32.07;17.07;;;;;;;;;;5036822;28;20179;-70
2023/07/02 04:53:53;;;;;;;33.63;16.47;;;;;;;;;;5019096;28;20195;-70
2023/07/02 04:56:19;;;;;;;27.53;16.63;;;;;;;;;;5036827;28;20262;-70
2023/07/02 04:58:45;;;;;;;29.97;16.47;;;;;;;;;;5036830;28;20252;-70
2023/07/02 05:01:11;;;;;;;30.53;16.53;;;;;;;;;;5019170;28;20586;-70
2023/07/02 05:03:38;;;;;;;27.20;16.57;;;;;;;;;;5019042;28;20179;-70
2023/07/02 05:06:04;;;;;;;29.03;16.20;;;;;;;;;;5036636;28;20178;-70
2023/07/02 05:08:30;;;;;;;34.97;17.57;;;;;;;;;;5036587;28;20203;-70
2023/07/02 05:10:56;;;;;;;30.33;17.80;;;;;;;;;;5018869;28;20179;-70
2023/07/02 05:13:22;;;;;;;33.63;17.10;;;;;;;;;;5036508;28;20183;-70
2023/07/02 05:15:48;;;;;;;27.70;18.20;;;;;;;;;;5036574;28;20210;-70
2023/07/02 05:18:14;;;;;;;33.63;18.87;;;;;;;;;;5036370;28;20217;-70
2023/07/02 05:20:40;;;;;;;38.13;19.47;;;;;;;;;;5030741;23;20223;-67
2023/07/02 05:23:06;;;;;;;33.40;18.67;;;;;;;;;;5016939;28;20176;-67
2023/07/02 05:25:33;;;;;;;35.27;19.73;;;;;;;;;;5016692;28;20184;-67
2023/07/02 05:27:59;;;;;;;29.17;17.90;;;;;;;;;;5015272;28;20193;-67
2023/07/02 05:30:25;;;;;;;29.73;18.13;;;;;;;;;;5016440;28;20678;-67
2023/07/02 05:32:51;;;;;;;35.60;19.40;;;;;;;;;;5016445;28;20646;-66
2023/07/02 05:35:17;;;;;;;30.67;18.03;;;;;;;;;;5016791;28;20626;-66
2023/07/02 05:37:43;;;;;;;35.60;18.20;;;;;;;;;;5016456;28;20238;-67
2023/07/02 05:40:09;;;;;;;31.47;16.83;;;;;;;;;;5016363;28;20211;-67
2023/07/02 05:42:36;;;;;;;29.83;18.17;;;;;;;;;;5016056;28;20182;-67
2023/07/02 05:45:02;;;;;;;28.70;18.03;;;;;;;;;;5014788;28;20206;-67
2023/07/02 05:47:28;;;;;;;32.97;17.60;;;;;;;;;;5015085;28;20646;-67
2023/07/02 05:49:53;;;;;;;35.57;18.27;;;;;;;;;;5016280;28;20552;-66
2023/07/02 05:52:19;;;;;;;30.70;17.57;;;;;;;;;;5016151;28;20646;-66
2023/07/02 05:54:45;;;;;;;33.97;17.27;;;;;;;;;;5016421;28;20179;-66
2023/07/02 05:57:11;;;;;;;28.10;16.83;;;;;;;;;;5016097;28;20731;-67
2023/07/02 05:59:38;;;;;;;28.90;17.53;;;;;;;;;;5014774;28;20184;-66
2023/07/02 06:02:04;;;;;;;30.80;17.23;;;;;;;;;;5016617;28;20180;-67
2023/07/02 06:04:30;;;;;;;28.67;16.97;;;;;;;;;;5015887;28;20176;-67
2023/07/02 06:06:57;;;;;;;30.90;17.90;;;;;;;;;;5015967;28;20180;-67
2023/07/02 06:09:23;;;;;;;26.07;16.43;;;;;;;;;;5014687;28;20263;-67
2023/07/02 06:11:49;;;;;;;35.87;18.10;;;;;;;;;;5014660;28;20678;-67
2023/07/02 06:14:15;;;;;;;34.00;16.03;;;;;;;;;;5015899;28;20675;-67
2023/07/02 06:16:41;;;;;;;30.00;16.20;;;;;;;;;;5014487;28;20183;-67
2023/07/02 06:19:07;;;;;;;32.57;16.60;;;;;;;;;;5014431;28;20645;-67
2023/07/02 06:21:33;;;;;;;29.77;16.27;;;;;;;;;;5015280;28;20226;-67
2023/07/02 06:23:59;;;;;;;28.67;15.70;;;;;;;;;;5015875;28;20207;-67
2023/07/02 06:26:25;;;;;;;29.13;16.13;;;;;;;;;;5016872;28;20183;-67
2023/07/02 06:28:51;;;;;;;25.60;14.37;;;;;;;;;;5020205;28;20172;-67
2023/07/02 06:31:17;;;;;;;29.40;15.13;;;;;;;;;;5021021;28;20254;-67
2023/07/02 06:33:43;;;;;;;26.70;14.07;;;;;;;;;;5014704;28;20186;-66
2023/07/02 06:36:09;;;;;;;28.23;14.53;;;;;;;;;;5015621;28;20190;-67
2023/07/02 06:38:35;;;;;;;25.77;14.47;;;;;;;;;;5015406;28;20183;-66
2023/07/02 06:41:01;;;;;;;27.20;14.13;;;;;;;;;;5013879;28;20216;-66
2023/07/02 06:43:27;;;;;;;27.00;14.27;;;;;;;;;;5013975;28;20175;-67
2023/07/02 06:45:53;;;;;;;20.83;13.63;;;;;;;;;;5015231;28;20609;-67
2023/07/02 06:48:21;;;;;;;23.40;13.53;;;;;;;;;;5013885;28;20183;-67
2023/07/02 06:50:47;;;;;;;26.33;13.20;;;;;;;;;;5014971;28;20195;-67
2023/07/02 06:53:13;;;;;;;26.67;13.80;;;;;;;;;;5014020;28;20191;-67
2023/07/02 06:55:39;;;;;;;35.03;13.67;;;;;;;;;;5013121;28;20207;-67
2023/07/02 06:58:06;;;;;;;27.67;14.97;;;;;;;;;;5014814;28;20191;-67
2023/07/02 07:00:35;;;;;;;32.83;15.10;;;;;;;;;;5013354;28;20306;-67
2023/07/02 07:03:01;;;;;;;30.33;14.73;;;;;;;;;;5013495;28;20172;-67
2023/07/02 07:05:27;;;;;;;26.77;14.73;;;;;;;;;;5014734;28;20199;-67
2023/07/02 07:07:52;;;;;;;27.93;15.23;;;;;;;;;;5013456;28;20219;-67
2023/07/02 07:10:20;;;;;;;23.70;14.30;;;;;;;;;;5013379;28;20210;-67
2023/07/02 07:12:46;;;;;;;29.33;14.30;;;;;;;;;;5013645;28;20202;-67
2023/07/02 07:15:12;;;;;;;29.03;13.27;;;;;;;;;;5013397;28;20192;-67
2023/07/02 07:17:37;;;;;;;28.53;13.07;;;;;;;;;;5013252;28;20216;-66
2023/07/02 07:20:04;;;;;;;27.20;12.30;;;;;;;;;;5012888;28;20593;-67
2023/07/02 07:22:31;;;;;;;24.67;11.43;;;;;;;;;;5013266;28;20258;-67
2023/07/02 07:24:56;;;;;;;23.07;10.83;;;;;;;;;;5014307;28;20186;-67
2023/07/02 07:27:22;;;;;;;20.03;11.13;;;;;;;;;;5014307;28;20176;-67
2023/07/02 07:29:48;;;;;;;23.10;11.07;;;;;;;;;;5014324;28;20662;-68
2023/07/02 07:32:14;;;;;;;21.70;11.37;;;;;;;;;;5013062;28;20184;-67
2023/07/02 07:34:40;;;;;;;23.57;11.33;;;;;;;;;;5013164;28;20176;-67
2023/07/02 07:37:06;;;;;;;24.33;11.53;;;;;;;;;;5014567;28;20642;-67
2023/07/02 07:39:32;;;;;;;23.87;11.17;;;;;;;;;;5014135;28;20600;-67
2023/07/02 07:41:58;;;;;;;25.30;11.07;;;;;;;;;;5014502;28;20608;-67
2023/07/02 07:44:29;;;;;;;22.53;11.00;;;;;;;;;;5014368;28;20207;-67
2023/07/02 07:46:57;;;;;;;19.00;10.60;;;;;;;;;;5013000;28;20188;-69
2023/07/02 07:49:23;;;;;;;18.57;10.63;;;;;;;;;;5013003;28;20662;-66
2023/07/02 07:51:49;;;;;;;20.27;10.90;;;;;;;;;;5012602;28;20211;-67
2023/07/02 07:54:15;;;;;;;18.47;9.57;;;;;;;;;;5012693;28;20299;-67
2023/07/02 07:56:42;;;;;;;22.13;10.40;;;;;;;;;;5012635;28;20223;-67
2023/07/02 07:59:08;;;;;;;21.80;11.00;;;;;;;;;;5013781;28;20190;-67
2023/07/02 08:01:34;;;;;;;19.17;9.23;;;;;;;;;;5013522;28;20215;-67
2023/07/02 08:04:00;;;;;;;19.37;9.77;;;;;;;;;;5013802;28;20220;-67
2023/07/02 08:06:27;;;;;;;17.80;9.63;;;;;;;;;;5014246;28;20183;-67
2023/07/02 08:08:53;;;;;;;17.97;9.10;;;;;;;;;;5013625;28;20195;-67
2023/07/02 08:11:18;;;;;;;21.43;9.67;;;;;;;;;;5012316;28;20678;-67
2023/07/02 08:13:44;;;;;;;16.27;8.80;;;;;;;;;;5013772;28;20186;-68
2023/07/02 08:16:10;;;;;;;17.37;9.20;;;;;;;;;;5013562;28;20183;-68
2023/07/02 08:18:36;;;;;;;15.07;8.70;;;;;;;;;;5012354;28;20211;-67
2023/07/02 08:21:03;;;;;;;17.77;8.53;;;;;;;;;;5013433;28;20216;-67
2023/07/02 08:23:29;;;;;;;17.40;8.23;;;;;;;;;;5013435;28;20710;-68
2023/07/02 08:25:55;;;;;;;15.53;7.33;;;;;;;;;;5013380;28;20264;-67
2023/07/02 08:28:21;;;;;;;16.80;8.90;;;;;;;;;;5012040;28;20211;-67
2023/07/02 08:30:47;;;;;;;19.07;7.90;;;;;;;;;;5013597;28;20254;-67
2023/07/02 08:33:13;;;;;;;12.77;7.63;;;;;;;;;;5013641;28;20234;-67
2023/07/02 08:35:39;;;;;;;17.60;7.83;;;;;;;;;;5013692;28;20186;-69
2023/07/02 08:38:06;;;;;;;15.00;7.67;;;;;;;;;;5011957;28;20266;-68
2023/07/02 08:40:31;;;;;;;17.23;8.87;;;;;;;;;;5013490;28;20211;-68
2023/07/02 08:42:59;;;;;;;12.57;7.50;;;;;;;;;;5013598;28;20179;-68
2023/07/02 08:45:25;;;;;;;13.90;7.53;;;;;;;;;;5013276;28;20184;-68
2023/07/02 08:47:53;;;;;;;16.07;7.60;;;;;;;;;;5012910;28;20176;-68
2023/07/02 08:50:19;;;;;;;14.30;7.90;;;;;;;;;;5011876;28;20218;-67
2023/07/02 08:52:45;;;;;;;16.70;8.70;;;;;;;;;;5013592;28;20182;-66
2023/07/02 08:55:11;;;;;;;14.03;8.10;;;;;;;;;;5013437;28;20183;-67
2023/07/02 08:57:37;;;;;;;18.77;8.67;;;;;;;;;;5011960;28;20275;-67
2023/07/02 09:00:09;;;;;;;15.97;8.73;;;;;;;;;;5011820;28;20212;-67
2023/07/02 09:02:35;;;;;;;15.00;8.40;;;;;;;;;;5013066;28;20207;-67
2023/07/02 09:05:01;;;;;;;18.43;9.93;;;;;;;;;;5013219;28;20172;-67
2023/07/02 09:07:27;;;;;;;18.50;9.17;;;;;;;;;;5012322;28;20187;-67
2023/07/02 09:09:53;;;;;;;31.70;14.87;;;;;;;;;;5014551;28;20183;-67
2023/07/02 09:12:24;;;;;;;25.77;10.33;;;;;;;;;;5015353;28;20180;-67
2023/07/02 09:14:55;;;;;;;18.20;11.53;;;;;;;;;;5013705;28;20171;-67
2023/07/02 09:17:21;;;;;;;16.27;9.00;;;;;;;;;;5014252;28;20238;-67
2023/07/02 09:19:51;;;;;;;18.40;10.00;;;;;;;;;;5015434;28;20187;-67
2023/07/02 09:22:17;;;;;;;17.30;8.60;;;;;;;;;;5016233;28;20199;-66
2023/07/02 09:24:51;;;;;;;14.43;8.13;;;;;;;;;;5016568;28;20546;-67
2023/07/02 09:27:17;;;;;;;15.87;8.53;;;;;;;;;;5017062;28;20278;-67
2023/07/02 09:29:43;;;;;;;18.53;9.37;;;;;;;;;;5016624;28;20293;-66
2023/07/02 09:32:10;;;;;;;15.83;9.50;;;;;;;;;;5015179;28;20171;-66
2023/07/02 09:34:37;;;;;;;18.03;9.23;;;;;;;;;;5015246;28;20180;-67
2023/07/02 09:37:04;;;;;;;16.17;9.53;;;;;;;;;;5015260;28;20180;-66
2023/07/02 09:39:32;;;;;;;19.07;9.27;;;;;;;;;;5016911;28;20164;-66
2023/07/02 09:41:59;;;;;;;15.33;8.50;;;;;;;;;;5014871;28;20212;-66
2023/07/02 09:44:27;;;;;;;20.10;9.37;;;;;;;;;;5015237;28;20179;-66
2023/07/02 09:46:56;;;;;;;19.00;8.37;;;;;;;;;;5016175;28;20713;-66
2023/07/02 09:49:23;;;;;;;17.80;8.13;;;;;;;;;;5016618;28;20534;-66
2023/07/02 09:51:49;;;;;;;12.87;7.80;;;;;;;;;;5014748;28;20254;-67
2023/07/02 09:54:15;;;;;;;14.20;7.50;;;;;;;;;;5016225;28;20256;-66
2023/07/02 09:56:41;;;;;;;12.37;7.70;;;;;;;;;;5016003;28;20191;-67
2023/07/02 09:59:07;;;;;;;12.77;6.57;;;;;;;;;;5015950;28;20208;-67
2023/07/02 10:01:33;;;;;;;15.47;7.73;;;;;;;;;;5014586;28;20614;-67
2023/07/02 10:04:10;;;;;;;14.33;7.47;;;;;;;;;;5016413;28;20176;-67
2023/07/02 10:06:50;;;;;;;15.00;7.77;;;;;;;;;;5016014;28;20167;-67
2023/07/02 10:09:16;;;;;;;14.83;7.73;;;;;;;;;;5015793;28;20168;-67
2023/07/02 10:11:42;;;;;;;14.40;7.53;;;;;;;;;;5015868;28;20208;-67
2023/07/02 10:14:08;;;;;;;15.87;8.00;;;;;;;;;;5015819;28;20184;-67
2023/07/02 10:16:34;;;;;;;10.73;7.83;;;;;;;;;;5015766;28;20523;-67
2023/07/02 10:19:10;;;;;;;14.27;7.97;;;;;;;;;;5015817;28;20179;-66
2023/07/02 10:21:36;;;;;;;13.83;8.33;;;;;;;;;;5015226;28;20215;-67
2023/07/02 10:24:15;;;;;;;17.23;8.60;;;;;;;;;;5014122;28;20243;-67
2023/07/02 10:26:53;;;;;;;17.10;8.93;;;;;;;;;;5015735;28;20176;-66
2023/07/02 10:29:20;;;;;;;13.73;7.40;;;;;;;;;;5014744;28;20222;-67
2023/07/02 10:31:50;;;;;;;17.53;7.70;;;;;;;;;;5015269;28;20350;-67
2023/07/02 10:34:16;;;;;;;14.23;7.70;;;;;;;;;;5013973;28;20278;-67
2023/07/02 10:36:42;;;;;;;15.03;7.33;;;;;;;;;;5015207;28;20176;-67
2023/07/02 10:39:08;;;;;;;18.13;7.10;;;;;;;;;;5015145;28;20180;-67
2023/07/02 10:41:34;;;;;;;12.20;7.03;;;;;;;;;;5013772;28;20298;-68
2023/07/02 10:44:10;;;;;;;16.37;7.63;;;;;;;;;;5013822;28;20226;-67
2023/07/02 10:46:45;;;;;;;13.17;6.80;;;;;;;;;;5015510;28;20255;-67
2023/07/02 10:49:11;;;;;;;13.10;7.77;;;;;;;;;;5015301;28;20177;-67
2023/07/02 10:51:38;;;;;;;13.33;7.13;;;;;;;;;;5014913;28;20200;-67
2023/07/02 10:54:07;;;;;;;14.83;7.60;;;;;;;;;;5015128;28;20172;-67
2023/07/02 10:56:33;;;;;;;14.23;7.73;;;;;;;;;;5014953;28;20183;-67
2023/07/02 10:58:59;;;;;;;14.33;7.40;;;;;;;;;;5013526;28;20184;-67
2023/07/02 11:01:29;;;;;;;13.43;7.50;;;;;;;;;;5013388;28;20755;-68
2023/07/02 11:04:02;;;;;;;13.00;7.70;;;;;;;;;;5014652;28;20199;-67
2023/07/02 11:06:28;;;;;;;10.90;7.23;;;;;;;;;;5013581;28;20190;-68
2023/07/02 11:08:57;;;;;;;13.40;7.03;;;;;;;;;;5014535;28;20627;-67
2023/07/02 11:11:23;;;;;;;12.37;7.47;;;;;;;;;;5013231;28;20207;-68
2023/07/02 11:13:50;;;;;;;13.13;7.43;;;;;;;;;;5014856;28;20274;-67
2023/07/02 11:16:20;;;;;;;12.63;7.47;;;;;;;;;;5013211;28;20187;-68
2023/07/02 11:18:46;;;;;;;11.00;6.93;;;;;;;;;;5014748;28;20180;-68
2023/07/02 11:21:12;;;;;;;11.20;6.43;;;;;;;;;;5014411;28;20226;-67
2023/07/02 11:23:38;;;;;;;14.20;7.70;;;;;;;;;;5016654;28;20555;-68
2023/07/02 11:26:04;;;;;;;13.50;7.23;;;;;;;;;;5016232;28;20199;-67
2023/07/02 11:28:31;;;;;;;14.23;7.13;;;;;;;;;;5013403;28;20176;-68
2023/07/02 11:30:58;;;;;;;12.90;7.13;;;;;;;;;;5014851;28;20263;-68
2023/07/02 11:33:36;;;;;;;12.73;7.27;;;;;;;;;;5012939;28;20745;-68
2023/07/02 11:36:03;;;;;;;9.83;6.47;;;;;;;;;;5014258;28;20705;-68
2023/07/02 11:38:29;;;;;;;13.53;6.67;;;;;;;;;;5065379;23;20238;-65
2023/07/02 11:40:55;;;;;;;10.80;7.27;;;;;;;;;;5035901;28;20255;-66
2023/07/02 11:43:21;;;;;;;13.53;7.37;;;;;;;;;;5036523;28;20208;-66
2023/07/02 11:45:47;;;;;;;14.60;8.13;;;;;;;;;;5054843;28;20209;-66
2023/07/02 11:48:13;;;;;;;13.30;7.43;;;;;;;;;;5053967;28;20641;-66
2023/07/02 11:50:39;;;;;;;18.33;7.37;;;;;;;;;;5053823;28;20341;-65
2023/07/02 11:53:05;;;;;;;16.03;7.70;;;;;;;;;;5053947;28;20223;-65
2023/07/02 11:55:31;;;;;;;15.47;7.53;;;;;;;;;;5053777;28;20278;-67
2023/07/02 11:57:57;;;;;;;13.43;7.97;;;;;;;;;;5054121;28;20209;-67
2023/07/02 12:00:23;;;;;;;14.13;7.27;;;;;;;;;;5053787;28;20206;-65
2023/07/02 12:02:49;;;;;;;13.87;7.20;;;;;;;;;;5035904;28;20571;-66
2023/07/02 12:05:15;;;;;;;16.40;8.00;;;;;;;;;;5053623;28;20225;-65
2023/07/02 12:07:41;;;;;;;13.90;7.10;;;;;;;;;;5035611;28;20203;-65
2023/07/02 12:10:07;;;;;;;15.17;8.23;;;;;;;;;;5035889;28;20220;-66
2023/07/02 12:12:33;;;;;;;14.63;8.37;;;;;;;;;;5053513;28;20182;-65
2023/07/02 12:14:59;;;;;;;12.00;7.47;;;;;;;;;;5053602;28;20182;-67
2023/07/02 12:17:25;;;;;;;16.83;7.40;;;;;;;;;;5053605;28;20252;-65
2023/07/02 12:19:51;;;;;;;13.83;8.03;;;;;;;;;;5035593;28;20189;-65
2023/07/02 12:22:18;;;;;;;14.83;6.93;;;;;;;;;;5053476;28;20217;-65
2023/07/02 12:24:44;;;;;;;13.43;7.57;;;;;;;;;;5035758;28;20220;-65
2023/07/02 12:27:10;;;;;;;18.90;8.13;;;;;;;;;;5036073;28;20195;-65
2023/07/02 12:29:36;;;;;;;12.73;7.03;;;;;;;;;;5053735;28;20651;-69
2023/07/02 12:32:02;;;;;;;15.83;8.43;;;;;;;;;;5036164;28;20182;-65
2023/07/02 12:34:29;;;;;;;13.47;8.17;;;;;;;;;;5036169;28;20208;-66
2023/07/02 12:36:55;;;;;;;9.27;6.93;;;;;;;;;;5053403;28;20623;-65
2023/07/02 12:39:21;;;;;;;14.70;7.90;;;;;;;;;;5053408;28;20194;-66
2023/07/02 12:41:47;;;;;;;14.10;7.73;;;;;;;;;;5053846;28;20245;-66
2023/07/02 12:44:13;;;;;;;11.30;7.57;;;;;;;;;;5053900;28;20222;-66
2023/07/02 12:46:39;;;;;;;19.50;8.63;;;;;;;;;;5053276;28;20179;-66
2023/07/02 12:49:05;;;;;;;15.57;8.40;;;;;;;;;;5053500;28;20281;-66
2023/07/02 12:51:31;;;;;;;15.13;8.13;;;;;;;;;;5035347;28;20214;-66
2023/07/02 12:53:57;;;;;;;17.90;8.47;;;;;;;;;;5056783;28;20185;-66
2023/07/02 12:56:23;;;;;;;16.03;9.13;;;;;;;;;;5057424;28;20179;-66
2023/07/02 12:58:51;;;;;;;14.50;8.30;;;;;;;;;;5039579;28;20586;-66
2023/07/02 13:01:17;;;;;;;18.03;8.83;;;;;;;;;;5057616;28;20206;-67
2023/07/02 13:03:47;;;;;;;16.40;8.37;;;;;;;;;;5057855;28;20182;-67
2023/07/02 13:06:13;;;;;;;15.67;8.60;;;;;;;;;;5039593;28;20652;-66
2023/07/02 13:08:39;;;;;;;13.43;8.57;;;;;;;;;;5057174;28;20700;-66
2023/07/02 13:11:05;;;;;;;21.90;9.43;;;;;;;;;;5057363;28;20182;-66
2023/07/02 13:13:31;;;;;;;19.93;9.43;;;;;;;;;;5057364;28;20175;-65
2023/07/02 13:15:57;;;;;;;14.97;8.97;;;;;;;;;;5040438;28;20192;-66
2023/07/02 13:18:23;;;;;;;17.10;9.20;;;;;;;;;;5058994;28;20198;-65
2023/07/02 13:20:50;;;;;;;20.03;9.90;;;;;;;;;;5040202;28;20229;-66
2023/07/02 13:23:16;;;;;;;19.20;9.27;;;;;;;;;;5057610;28;20175;-66
2023/07/02 13:25:41;;;;;;;14.67;9.07;;;;;;;;;;5057115;28;20201;-66
2023/07/02 13:28:07;;;;;;;16.47;9.60;;;;;;;;;;5057756;28;20241;-68
2023/07/02 13:30:33;;;;;;;18.57;10.13;;;;;;;;;;5057990;28;20245;-67
2023/07/02 13:32:59;;;;;;;16.90;9.83;;;;;;;;;;5057091;28;20265;-66
2023/07/02 13:35:25;;;;;;;18.87;9.77;;;;;;;;;;5039314;28;20189;-66
2023/07/02 13:37:52;;;;;;;15.93;9.70;;;;;;;;;;5057043;28;20214;-66
2023/07/02 13:40:18;;;;;;;18.20;9.73;;;;;;;;;;5056859;28;20223;-67
2023/07/02 13:42:44;;;;;;;20.20;10.47;;;;;;;;;;5056844;28;20174;-65
2023/07/02 13:45:10;;;;;;;16.77;9.20;;;;;;;;;;5038780;28;20183;-66
2023/07/02 13:47:37;;;;;;;21.17;10.53;;;;;;;;;;5038554;28;20199;-66
2023/07/02 13:50:03;;;;;;;21.03;9.93;;;;;;;;;;5056340;28;20205;-66
2023/07/02 13:52:29;;;;;;;17.57;8.83;;;;;;;;;;5056407;28;20201;-65
2023/07/02 13:54:55;;;;;;;15.87;9.20;;;;;;;;;;5056035;28;20174;-66
2023/07/02 13:57:21;;;;;;;16.87;9.20;;;;;;;;;;5056208;28;20252;-65
2023/07/02 13:59:47;;;;;;;17.40;9.67;;;;;;;;;;5038092;28;20188;-66
2023/07/02 14:02:13;;;;;;;16.40;9.67;;;;;;;;;;5056010;28;20179;-66
2023/07/02 14:04:39;;;;;;;21.13;10.10;;;;;;;;;;5055784;28;20207;-66
2023/07/02 14:07:05;;;;;;;18.97;10.33;;;;;;;;;;5055715;28;20178;-66
2023/07/02 14:09:31;;;;;;;18.77;9.93;;;;;;;;;;5055810;28;20549;-66
2023/07/02 14:11:58;;;;;;;17.13;10.70;;;;;;;;;;5055735;28;20207;-66
2023/07/02 14:14:24;;;;;;;13.70;9.27;;;;;;;;;;5037864;28;20263;-67
2023/07/02 14:16:50;;;;;;;16.23;9.87;;;;;;;;;;5037838;28;20190;-65
2023/07/02 14:19:17;;;;;;;20.90;10.73;;;;;;;;;;5056227;28;20201;-67
2023/07/02 14:21:43;;;;;;;20.13;9.50;;;;;;;;;;5055477;28;20213;-67